Time;durP1;ratioP1;P1;durP2;ratioP2;P2;SDS_P1;SDS_P2;PMS_P1;PMS_P2;Temp;Humidity;BMP_temperature;BMP_pressure;BME280_temperature;BME280_humidity;BME280_pressure;Samples;Min_cycle;Max_cycle;Signal;HPM_P1;HPM_P2
2022/04/30 00:02:09;;;;;;;11.15;4.82;;;6.00;99.90;;;;;;5032504;28;20069;-77
2022/04/30 00:04:36;;;;;;;16.85;6.50;;;6.00;99.90;;;;;;5014904;28;20034;-77
2022/04/30 00:07:02;;;;;;;12.02;5.50;;;6.00;99.90;;;;;;5014343;28;20037;-77
2022/04/30 00:09:28;;;;;;;12.13;5.45;;;6.00;99.90;;;;;;5013800;28;20037;-77
2022/04/30 00:11:54;;;;;;;11.23;6.88;;;6.00;99.90;;;;;;4997388;28;20504;-77
2022/04/30 00:14:19;;;;;;;11.15;5.00;;;6.00;99.90;;;;;;5014123;28;20049;-77
2022/04/30 00:16:45;;;;;;;17.25;5.28;;;6.00;99.90;;;;;;5013714;28;20048;-77
2022/04/30 00:19:10;;;;;;;15.02;6.47;;;6.00;99.90;;;;;;5013717;28;20045;-77
2022/04/30 00:21:36;;;;;;;17.42;5.78;;;6.00;99.90;;;;;;5013835;28;20413;-77
2022/04/30 00:24:02;;;;;;;12.20;5.70;;;5.90;99.90;;;;;;5013777;28;20037;-77
2022/04/30 00:26:28;;;;;;;14.50;5.55;;;5.90;99.90;;;;;;5013678;28;20564;-77
2022/04/30 00:28:54;;;;;;;11.27;5.28;;;5.90;99.90;;;;;;5013837;28;20076;-77
2022/04/30 00:31:19;;;;;;;12.98;5.50;;;5.90;99.90;;;;;;4997108;28;20050;-77
2022/04/30 00:33:48;;;;;;;12.88;5.65;;;5.90;99.90;;;;;;5013588;28;20129;-77
2022/04/30 00:36:17;;;;;;;15.80;5.38;;;5.90;99.90;;;;;;5013711;28;20544;-77
2022/04/30 00:38:42;;;;;;;10.35;5.95;;;5.80;99.90;;;;;;5013508;28;20524;-77
2022/04/30 00:41:08;;;;;;;13.10;5.43;;;5.80;99.90;;;;;;5013356;28;20057;-77
2022/04/30 00:43:51;;;;;;;12.90;6.80;;;5.80;99.90;;;;;;5013921;28;20103;-77
2022/04/30 00:46:22;;;;;;;13.02;6.22;;;5.80;99.90;;;;;;5013691;28;20435;-77
2022/04/30 00:48:48;;;;;;;13.25;5.78;;;5.70;99.90;;;;;;5013715;28;20432;-77
2022/04/30 00:51:15;;;;;;;11.15;6.15;;;5.70;99.90;;;;;;5014295;28;20049;-77
2022/04/30 00:53:44;;;;;;;17.63;6.47;;;5.70;99.90;;;;;;5020954;28;20037;-75
2022/04/30 00:56:12;;;;;;;17.63;8.07;;;5.60;99.90;;;;;;5030152;28;20049;-77
2022/04/30 00:58:41;;;;;;;16.15;6.05;;;5.60;99.90;;;;;;5020216;28;20041;-77
2022/04/30 01:01:07;;;;;;;13.35;6.10;;;5.60;99.90;;;;;;5017541;28;20116;-78
2022/04/30 01:03:32;;;;;;;12.45;6.03;;;5.50;99.90;;;;;;5017452;28;20576;-78
2022/04/30 01:06:02;;;;;;;19.27;6.75;;;5.50;99.90;;;;;;5017335;28;20528;-78
2022/04/30 01:08:28;;;;;;;13.50;5.55;;;5.50;99.90;;;;;;5017453;28;20098;-78
2022/04/30 01:11:03;;;;;;;10.63;5.63;;;5.50;99.90;;;;;;5017091;28;20125;-78
2022/04/30 01:13:33;;;;;;;10.82;5.90;;;5.50;99.90;;;;;;5017058;28;20045;-78
2022/04/30 01:16:00;;;;;;;12.65;6.28;;;5.40;99.90;;;;;;5017151;28;20045;-78
2022/04/30 01:18:26;;;;;;;16.23;6.60;;;5.30;99.90;;;;;;5017424;28;20404;-78
2022/04/30 01:20:56;;;;;;;11.48;5.65;;;5.30;99.90;;;;;;5016554;28;20056;-78
2022/04/30 01:23:23;;;;;;;13.52;5.60;;;5.30;99.90;;;;;;5016981;28;20053;-78
2022/04/30 01:25:50;;;;;;;11.20;5.90;;;5.30;99.90;;;;;;5017294;28;20055;-78
2022/04/30 01:28:19;;;;;;;12.68;5.90;;;5.30;99.90;;;;;;5016877;28;20049;-78
2022/04/30 01:30:45;;;;;;;9.75;5.20;;;5.20;99.90;;;;;;5016623;28;20377;-78
2022/04/30 01:38:40;;;;;;;14.02;6.15;;;5.10;99.90;;;;;;5016740;28;20052;-78
2022/04/30 01:41:05;;;;;;;11.65;5.40;;;5.10;99.90;;;;;;5016598;28;20068;-78
2022/04/30 01:43:33;;;;;;;13.75;5.97;;;5.00;99.90;;;;;;5016493;28;20579;-78
2022/04/30 01:46:01;;;;;;;15.45;6.10;;;4.90;99.90;;;;;;5016969;28;20064;-78
2022/04/30 01:48:26;;;;;;;13.65;6.40;;;4.80;99.90;;;;;;5016389;28;20120;-78
2022/04/30 01:50:52;;;;;;;13.65;6.38;;;4.70;99.90;;;;;;5016392;28;20125;-78
2022/04/30 01:53:18;;;;;;;10.23;5.35;;;4.70;99.90;;;;;;5016278;28;20046;-78
2022/04/30 01:55:44;;;;;;;8.80;5.30;;;4.60;99.90;;;;;;5016400;28;20098;-78
2022/04/30 01:58:10;;;;;;;13.18;5.75;;;4.60;99.90;;;;;;5034235;28;20041;-78
2022/04/30 02:00:35;;;;;;;14.00;5.90;;;4.50;99.90;;;;;;5016187;28;20037;-77
2022/04/30 02:03:06;;;;;;;12.90;6.30;;;4.50;99.90;;;;;;5016023;28;20048;-77
2022/04/30 02:05:33;;;;;;;9.95;5.55;;;4.40;99.90;;;;;;5016242;28;20041;-77
2022/04/30 02:08:06;;;;;;;14.68;5.18;;;4.40;99.90;;;;;;5016143;28;20068;-77
2022/04/30 02:10:35;;;;;;;23.45;6.07;;;4.40;99.90;;;;;;5015748;28;20045;-78
2022/04/30 02:13:01;;;;;;;11.75;6.03;;;4.30;99.90;;;;;;5016061;28;20037;-78
2022/04/30 02:15:28;;;;;;;8.38;4.82;;;4.30;99.90;;;;;;4999995;28;20041;-78
2022/04/30 02:17:55;;;;;;;11.95;5.72;;;4.30;99.90;;;;;;5016251;28;20056;-78
2022/04/30 02:20:25;;;;;;;10.13;5.22;;;4.20;99.90;;;;;;5015517;28;20142;-78
2022/04/30 02:22:57;;;;;;;10.05;4.95;;;4.20;99.90;;;;;;5015917;28;20048;-78
2022/04/30 02:25:24;;;;;;;10.48;5.20;;;4.20;99.90;;;;;;5015887;28;20045;-78
2022/04/30 02:27:52;;;;;;;12.30;5.28;;;4.20;99.90;;;;;;5015778;28;20054;-78
2022/04/30 02:30:22;;;;;;;14.70;6.82;;;4.10;99.90;;;;;;5015331;28;20095;-78
2022/04/30 02:32:54;;;;;;;13.40;5.75;;;4.10;99.90;;;;;;5015942;28;20045;-78
2022/04/30 02:35:22;;;;;;;15.45;5.60;;;4.00;99.90;;;;;;5015936;28;20496;-78
2022/04/30 02:37:50;;;;;;;13.85;6.05;;;4.00;99.90;;;;;;5015662;28;20041;-78
2022/04/30 02:40:17;;;;;;;12.55;6.28;;;4.00;99.90;;;;;;5015651;28;20408;-77
2022/04/30 02:42:44;;;;;;;10.77;5.05;;;4.00;99.90;;;;;;5015745;28;20037;-77
2022/04/30 02:45:13;;;;;;;13.13;5.53;;;4.00;99.90;;;;;;4999808;28;20128;-77
2022/04/30 02:47:40;;;;;;;8.77;4.90;;;4.00;99.90;;;;;;5015863;28;20051;-77
2022/04/30 02:50:08;;;;;;;13.20;5.90;;;4.00;99.90;;;;;;5015371;28;20045;-77
2022/04/30 02:52:34;;;;;;;8.65;4.93;;;4.10;99.90;;;;;;4999358;28;20046;-77
2022/04/30 02:55:00;;;;;;;12.57;6.25;;;4.10;99.90;;;;;;5015695;28;20063;-77
2022/04/30 02:57:37;;;;;;;11.20;5.15;;;4.10;99.90;;;;;;5015700;28;20041;-77
2022/04/30 03:00:07;;;;;;;8.88;5.55;;;4.10;99.90;;;;;;5015567;28;20091;-77
2022/04/30 03:02:33;;;;;;;12.95;5.72;;;4.00;99.90;;;;;;5015764;28;20053;-77
2022/04/30 03:04:58;;;;;;;14.20;6.15;;;4.00;99.90;;;;;;5016009;28;20408;-77
2022/04/30 03:07:24;;;;;;;11.48;6.45;;;4.00;99.90;;;;;;5033134;28;20496;-77
2022/04/30 03:09:50;;;;;;;11.63;5.78;;;4.00;99.90;;;;;;5015218;28;20056;-77
2022/04/30 03:12:16;;;;;;;11.05;5.07;;;4.00;99.90;;;;;;5015670;28;20037;-77
2022/04/30 03:14:42;;;;;;;11.27;5.63;;;4.10;99.90;;;;;;5015099;28;20116;-77
2022/04/30 03:22:38;;;;;;;13.43;6.00;;;4.10;99.90;;;;;;5015244;28;20075;-77
2022/04/30 03:25:04;;;;;;;10.25;5.30;;;4.10;99.90;;;;;;5015106;28;20627;-77
2022/04/30 03:27:31;;;;;;;13.02;5.68;;;4.10;99.90;;;;;;4998632;28;20061;-77
2022/04/30 03:29:57;;;;;;;14.57;5.78;;;4.20;99.90;;;;;;5032413;28;20507;-77
2022/04/30 03:32:24;;;;;;;12.27;5.75;;;4.20;99.90;;;;;;5014707;28;20045;-77
2022/04/30 03:34:50;;;;;;;18.88;6.15;;;4.20;99.90;;;;;;5014875;28;20049;-77
2022/04/30 03:37:15;;;;;;;14.82;6.50;;;4.30;99.90;;;;;;5014775;28;20064;-77
2022/04/30 03:39:41;;;;;;;16.55;7.15;;;4.30;99.90;;;;;;5014468;28;20049;-77
2022/04/30 03:42:07;;;;;;;15.63;5.72;;;4.30;99.90;;;;;;5014826;28;20135;-77
2022/04/30 03:44:32;;;;;;;13.35;6.50;;;4.30;99.90;;;;;;5014864;28;20045;-76
2022/04/30 03:46:58;;;;;;;12.20;5.97;;;4.30;99.90;;;;;;5016215;28;20531;-76
2022/04/30 03:49:23;;;;;;;12.80;6.43;;;4.40;99.90;;;;;;5014767;28;20041;-77
2022/04/30 03:51:49;;;;;;;13.95;6.10;;;4.40;99.90;;;;;;5014037;28;20085;-77
2022/04/30 03:54:14;;;;;;;12.00;5.93;;;4.50;99.90;;;;;;5014212;28;20095;-77
2022/04/30 03:56:40;;;;;;;13.10;6.47;;;4.50;99.90;;;;;;5014179;28;20495;-77
2022/04/30 03:59:06;;;;;;;10.20;5.65;;;4.50;99.90;;;;;;5014124;28;20077;-77
2022/04/30 04:01:32;;;;;;;11.45;6.00;;;4.50;99.90;;;;;;5014218;28;20051;-78
2022/04/30 04:04:00;;;;;;;9.60;5.28;;;4.50;99.90;;;;;;5014340;28;20451;-78
2022/04/30 04:06:26;;;;;;;13.38;5.30;;;4.50;99.90;;;;;;5014294;28;20068;-78
2022/04/30 04:08:52;;;;;;;11.45;5.55;;;4.50;99.90;;;;;;5014178;28;20037;-78
2022/04/30 04:11:18;;;;;;;11.32;5.90;;;4.50;99.90;;;;;;5013866;28;20120;-78
2022/04/30 04:19:13;;;;;;;11.90;6.20;;;4.50;99.90;;;;;;5013467;28;20051;-78
2022/04/30 04:21:38;;;;;;;16.52;6.25;;;4.50;99.90;;;;;;5013673;28;20496;-77
2022/04/30 04:26:49;;;;;;;13.60;7.03;;;4.50;99.90;;;;;;5013312;28;20420;-77
2022/04/30 04:29:16;;;;;;;10.60;6.47;;;4.50;99.90;;;;;;5014111;28;20053;-77
2022/04/30 04:31:43;;;;;;;13.25;6.22;;;4.60;99.90;;;;;;5013993;28;20467;-77
2022/04/30 04:34:09;;;;;;;10.68;5.90;;;4.60;99.90;;;;;;5013863;28;20076;-77
2022/04/30 04:36:35;;;;;;;13.80;6.05;;;4.60;99.90;;;;;;5014376;28;20501;-77
2022/04/30 04:39:00;;;;;;;16.08;6.40;;;4.70;99.90;;;;;;5014094;28;20355;-77
2022/04/30 04:41:26;;;;;;;11.40;6.60;;;4.70;99.90;;;;;;5013718;28;20099;-77
2022/04/30 04:43:51;;;;;;;12.02;6.72;;;4.80;99.90;;;;;;5014026;28;20049;-77
2022/04/30 04:46:17;;;;;;;13.98;6.93;;;4.90;99.90;;;;;;5013798;28;20045;-77
2022/04/30 04:48:43;;;;;;;15.38;6.95;;;4.90;99.90;;;;;;5014200;28;20049;-77
2022/04/30 04:51:08;;;;;;;13.60;5.65;;;5.10;99.90;;;;;;5013546;28;20064;-77
2022/04/30 04:53:35;;;;;;;12.95;6.30;;;5.10;99.90;;;;;;5013798;28;20188;-77
2022/04/30 04:56:03;;;;;;;11.50;5.90;;;5.10;99.90;;;;;;5031565;28;20091;-77
2022/04/30 04:58:29;;;;;;;14.55;6.38;;;5.20;99.90;;;;;;5031599;28;20098;-77
2022/04/30 05:00:55;;;;;;;14.10;7.70;;;5.20;99.90;;;;;;5013691;28;20456;-77
2022/04/30 05:03:20;;;;;;;10.93;6.00;;;5.30;99.90;;;;;;5013783;28;20037;-77
2022/04/30 05:05:46;;;;;;;13.93;6.13;;;5.40;99.90;;;;;;5013725;28;20042;-77
2022/04/30 05:08:11;;;;;;;10.07;5.57;;;5.40;99.90;;;;;;5013709;28;20042;-77
2022/04/30 05:10:37;;;;;;;19.95;6.78;;;5.50;99.90;;;;;;5013800;28;20042;-77
2022/04/30 05:13:02;;;;;;;11.15;6.20;;;5.60;99.90;;;;;;5013645;28;20180;-77
2022/04/30 05:15:28;;;;;;;11.52;6.32;;;5.70;99.90;;;;;;5014188;28;20037;-77
2022/04/30 05:17:54;;;;;;;19.85;7.55;;;5.80;99.90;;;;;;5013828;28;20541;-77
2022/04/30 05:20:20;;;;;;;12.68;6.40;;;5.80;99.90;;;;;;5013588;28;20116;-77
2022/04/30 05:22:46;;;;;;;9.57;5.60;;;5.90;99.90;;;;;;5013569;28;20128;-77
2022/04/30 05:25:13;;;;;;;11.70;6.25;;;6.00;99.90;;;;;;5013883;28;20045;-77
2022/04/30 05:27:38;;;;;;;10.13;6.15;;;6.10;99.90;;;;;;5013948;28;20513;-77
2022/04/30 05:30:05;;;;;;;13.90;6.78;;;6.10;99.90;;;;;;5013187;28;20080;-77
2022/04/30 05:32:30;;;;;;;13.48;6.43;;;6.20;99.90;;;;;;4997097;28;20164;-77
2022/04/30 05:34:56;;;;;;;14.85;6.32;;;6.30;99.90;;;;;;5013300;28;20121;-77
2022/04/30 05:37:21;;;;;;;10.32;5.50;;;6.40;99.90;;;;;;5032299;28;20124;-77
2022/04/30 05:39:46;;;;;;;13.57;6.43;;;6.50;99.90;;;;;;5018245;28;20395;-77
2022/04/30 05:42:12;;;;;;;10.60;6.10;;;6.60;99.90;;;;;;5019026;28;20041;-77
2022/04/30 05:44:37;;;;;;;11.43;6.28;;;6.70;99.90;;;;;;5018088;28;20041;-77
2022/04/30 05:47:03;;;;;;;9.77;5.78;;;6.80;99.90;;;;;;5016527;28;20121;-78
2022/04/30 05:49:29;;;;;;;14.88;5.97;;;6.80;99.90;;;;;;5016188;28;20041;-77
2022/04/30 05:51:54;;;;;;;11.25;5.88;;;6.90;99.90;;;;;;5017753;28;20046;-78
2022/04/30 05:54:20;;;;;;;13.45;5.68;;;7.00;99.90;;;;;;5017826;28;20048;-77
2022/04/30 05:56:45;;;;;;;12.98;6.03;;;7.00;99.90;;;;;;5017859;28;20460;-77
2022/04/30 05:59:11;;;;;;;13.23;5.75;;;7.10;99.90;;;;;;5035415;28;20080;-78
2022/04/30 06:01:36;;;;;;;14.95;6.32;;;7.10;99.90;;;;;;5016080;28;20045;-77
2022/04/30 06:04:02;;;;;;;14.38;6.07;;;7.20;99.90;;;;;;5016287;28;20121;-77
2022/04/30 06:06:28;;;;;;;10.60;5.53;;;7.20;99.90;;;;;;5016656;28;20056;-77
2022/04/30 06:08:53;;;;;;;13.75;6.75;;;7.20;99.90;;;;;;5016155;28;20045;-77
2022/04/30 06:11:19;;;;;;;15.95;7.43;;;7.30;99.90;;;;;;5016283;28;20041;-77
2022/04/30 06:13:44;;;;;;;9.88;5.90;;;7.30;99.90;;;;;;5016225;28;20512;-77
2022/04/30 06:16:10;;;;;;;11.18;6.18;;;7.30;99.90;;;;;;5015963;28;20045;-77
2022/04/30 06:18:35;;;;;;;10.70;6.20;;;7.40;99.90;;;;;;5016232;28;20080;-78
2022/04/30 06:21:01;;;;;;;14.20;6.30;;;7.40;99.90;;;;;;5016088;28;20165;-77
2022/04/30 06:23:27;;;;;;;13.48;6.75;;;7.50;99.90;;;;;;5016556;28;20049;-78
2022/04/30 06:25:52;;;;;;;11.13;6.05;;;7.60;99.90;;;;;;5016072;28;20044;-78
2022/04/30 06:28:18;;;;;;;11.98;6.55;;;7.60;99.90;;;;;;5033629;28;20455;-78
2022/04/30 06:30:43;;;;;;;10.48;6.07;;;7.70;99.90;;;;;;5015899;28;20112;-78
2022/04/30 06:33:09;;;;;;;14.45;5.55;;;7.80;99.90;;;;;;5015810;28;20053;-78
2022/04/30 06:35:37;;;;;;;13.27;6.38;;;7.90;99.90;;;;;;5016275;28;20041;-78
2022/04/30 06:38:02;;;;;;;11.57;6.05;;;8.00;99.90;;;;;;5016003;28;20124;-78
2022/04/30 06:40:28;;;;;;;11.18;5.60;;;8.00;99.90;;;;;;5033368;28;20128;-78
2022/04/30 06:42:54;;;;;;;15.40;5.88;;;8.10;99.90;;;;;;5016303;28;20408;-76
2022/04/30 06:45:20;;;;;;;9.10;5.30;;;8.10;99.90;;;;;;5036326;28;20037;-76
2022/04/30 06:47:45;;;;;;;10.77;5.40;;;8.10;99.90;;;;;;5019574;28;20057;-78
2022/04/30 06:50:11;;;;;;;13.02;6.47;;;8.20;99.90;;;;;;5014419;28;20052;-78
2022/04/30 06:58:13;;;;;;;12.95;5.20;;;8.30;99.90;;;;;;5015140;28;20056;-78
2022/04/30 07:03:26;;;;;;;11.55;5.18;;;8.40;99.90;;;;;;5015261;28;20053;-77
2022/04/30 07:05:52;;;;;;;13.45;7.20;;;8.50;99.90;;;;;;5015102;28;20544;-77
2022/04/30 07:08:18;;;;;;;18.80;11.48;;;8.60;99.90;;;;;;5015253;28;20384;-73
2022/04/30 07:10:43;;;;;;;10.77;6.85;;;8.70;99.90;;;;;;4998335;28;20124;-74
2022/04/30 07:13:09;;;;;;;21.20;7.75;;;8.80;99.90;;;;;;5015107;28;20432;-75
2022/04/30 07:15:35;;;;;;;27.50;10.93;;;8.80;99.90;;;;;;5014813;28;20069;-75
2022/04/30 07:18:00;;;;;;;16.08;5.78;;;8.90;99.90;;;;;;5015597;28;20091;-76
2022/04/30 07:20:26;;;;;;;15.88;5.63;;;8.90;99.90;;;;;;5014316;28;20048;-75
2022/04/30 07:22:52;;;;;;;9.27;5.03;;;9.00;99.90;;;;;;5014847;28;20045;-75
2022/04/30 07:25:18;;;;;;;12.25;5.80;;;9.00;99.90;;;;;;5014632;28;20507;-75
2022/04/30 07:27:44;;;;;;;19.15;8.00;;;9.00;99.90;;;;;;5014537;28;20045;-74
2022/04/30 07:30:10;;;;;;;10.38;4.90;;;9.10;99.90;;;;;;5014133;28;20052;-74
2022/04/30 07:32:39;;;;;;;7.57;4.65;;;9.20;99.90;;;;;;5017558;28;20045;-79
2022/04/30 07:35:05;;;;;;;9.75;5.57;;;9.30;99.90;;;;;;4999358;28;20052;-81
2022/04/30 07:37:31;;;;;;;10.68;5.18;;;9.30;99.90;;;;;;5014985;28;20045;-80
2022/04/30 07:39:56;;;;;;;10.07;5.78;;;9.40;99.90;;;;;;4997978;28;20404;-77
2022/04/30 07:42:22;;;;;;;6.82;5.38;;;9.50;99.90;;;;;;4998156;28;20120;-77
2022/04/30 07:44:47;;;;;;;10.13;5.28;;;9.60;99.90;;;;;;5014268;28;20064;-78
2022/04/30 07:47:13;;;;;;;8.45;4.90;;;9.70;99.90;;;;;;5014429;28;20037;-77
2022/04/30 07:49:41;;;;;;;11.52;4.88;;;9.80;99.90;;;;;;5014020;28;20060;-77
2022/04/30 07:52:07;;;;;;;8.30;5.00;;;9.90;99.90;;;;;;5032017;28;20411;-77
2022/04/30 07:54:32;;;;;;;10.48;5.15;;;10.10;99.90;;;;;;5031805;28;20049;-75
2022/04/30 07:57:01;;;;;;;62.15;16.80;;;10.40;99.90;;;;;;5014179;28;20042;-74
2022/04/30 07:59:28;;;;;;;9.75;4.97;;;10.80;99.90;;;;;;5014380;28;20526;-74
2022/04/30 08:01:53;;;;;;;12.20;5.90;;;11.10;99.90;;;;;;5013729;28;20051;-74
2022/04/30 08:04:19;;;;;;;8.85;4.93;;;11.50;99.90;;;;;;5013963;28;20396;-75
2022/04/30 08:06:44;;;;;;;9.55;4.30;;;11.70;99.90;;;;;;5014266;28;20042;-74
2022/04/30 08:09:10;;;;;;;8.40;4.97;;;11.80;99.90;;;;;;5013813;28;20045;-74
2022/04/30 08:11:36;;;;;;;10.77;4.85;;;11.90;99.90;;;;;;5013433;28;20045;-75
2022/04/30 08:14:02;;;;;;;10.73;4.50;;;12.00;99.90;;;;;;5031208;28;20052;-75
2022/04/30 08:16:28;;;;;;;9.05;4.68;;;12.10;99.90;;;;;;5013816;28;20041;-75
2022/04/30 08:18:58;;;;;;;8.55;5.40;;;12.20;99.90;;;;;;5013637;28;20484;-74
2022/04/30 08:21:24;;;;;;;12.23;5.25;;;12.30;99.90;;;;;;5013455;28;20041;-75
2022/04/30 08:23:50;;;;;;;9.65;4.85;;;12.40;99.90;;;;;;5031288;28;20057;-74
2022/04/30 08:26:16;;;;;;;11.38;4.78;;;12.60;99.90;;;;;;5013636;28;20052;-74
2022/04/30 08:28:41;;;;;;;9.52;4.43;;;12.60;99.90;;;;;;4997293;28;20469;-74
2022/04/30 08:31:07;;;;;;;11.95;5.22;;;12.60;99.90;;;;;;5030936;28;20161;-74
2022/04/30 08:33:32;;;;;;;10.60;5.38;;;12.40;99.90;;;;;;5013462;28;20080;-75
2022/04/30 08:35:58;;;;;;;8.45;4.22;;;12.40;99.90;;;;;;5013719;28;20397;-77
2022/04/30 08:38:24;;;;;;;7.00;4.60;;;12.30;99.90;;;;;;5013447;28;20412;-76
2022/04/30 08:40:49;;;;;;;8.80;4.07;;;12.30;99.90;;;;;;5013452;28;20072;-77
2022/04/30 08:43:16;;;;;;;7.30;5.00;;;12.20;99.90;;;;;;5028027;28;20038;-76
2022/04/30 08:45:44;;;;;;;12.30;5.13;;;12.30;99.90;;;;;;5017992;28;20048;-76
2022/04/30 08:48:12;;;;;;;10.20;4.97;;;12.50;99.90;;;;;;4997298;28;20053;-79
2022/04/30 08:50:39;;;;;;;8.55;3.65;;;12.60;99.90;;;;;;5015731;28;20106;-79
2022/04/30 08:53:05;;;;;;;12.20;5.22;;;12.70;99.90;;;;;;5035376;28;20060;-78
2022/04/30 08:55:31;;;;;;;9.15;4.55;;;12.90;99.90;;;;;;5034112;28;20519;-79
2022/04/30 08:57:57;;;;;;;9.55;5.03;;;13.20;99.90;;;;;;5016318;28;20536;-79
2022/04/30 09:00:22;;;;;;;8.98;4.65;;;13.70;99.90;;;;;;5035034;28;20073;-79
2022/04/30 09:02:50;;;;;;;9.05;4.32;;;13.90;99.90;;;;;;5020068;28;20069;-79
2022/04/30 09:05:16;;;;;;;10.48;5.10;;;14.10;99.90;;;;;;5019243;28;20033;-79
2022/04/30 09:07:41;;;;;;;7.60;4.32;;;14.10;99.90;;;;;;5020766;28;20048;-79
2022/04/30 09:10:08;;;;;;;5.80;3.40;;;14.20;99.90;;;;;;5021333;28;20045;-79
2022/04/30 09:12:34;;;;;;;8.02;4.43;;;14.70;99.90;;;;;;5020862;28;20053;-79
2022/04/30 09:15:00;;;;;;;7.50;4.05;;;14.90;99.90;;;;;;5021831;28;20080;-79
2022/04/30 09:17:28;;;;;;;10.52;4.55;;;14.80;99.90;;;;;;5006903;28;20038;-79
2022/04/30 09:19:59;;;;;;;10.15;5.22;;;14.70;99.90;;;;;;5017461;28;20042;-77
2022/04/30 09:22:31;;;;;;;6.25;4.80;;;14.40;99.90;;;;;;5018043;28;20395;-77
2022/04/30 09:25:00;;;;;;;7.85;4.90;;;14.30;99.90;;;;;;5017474;28;20052;-77
2022/04/30 09:27:27;;;;;;;7.18;4.88;;;14.20;99.90;;;;;;5018331;28;20128;-77
2022/04/30 09:29:53;;;;;;;6.60;4.00;;;14.20;99.90;;;;;;5019258;28;20050;-77
2022/04/30 09:32:24;;;;;;;7.82;4.40;;;14.20;99.90;;;;;;5018074;28;20554;-78
2022/04/30 09:37:41;;;;;;;7.07;3.72;;;14.20;99.90;;;;;;5035982;28;20459;-77
2022/04/30 09:40:16;;;;;;;6.70;3.00;;;14.20;99.90;;;;;;5017331;28;20038;-77
2022/04/30 09:42:43;;;;;;;6.13;3.63;;;14.30;99.90;;;;;;5017608;28;20049;-77
2022/04/30 09:45:21;;;;;;;8.68;4.38;;;14.10;99.90;;;;;;5017894;28;20064;-77
2022/04/30 09:47:47;;;;;;;6.97;3.70;;;13.90;99.90;;;;;;5017665;28;20042;-77
2022/04/30 09:55:54;;;;;;;6.72;3.22;;;14.20;99.90;;;;;;5002704;28;20056;-77
2022/04/30 09:58:25;;;;;;;9.02;3.40;;;14.10;99.90;;;;;;5017551;28;20382;-77
2022/04/30 10:00:57;;;;;;;5.47;3.80;;;14.00;99.90;;;;;;5017055;28;20041;-77
2022/04/30 10:03:26;;;;;;;6.15;3.65;;;14.00;99.90;;;;;;5017808;28;20053;-77
2022/04/30 10:06:00;;;;;;;4.53;3.28;;;14.20;99.90;;;;;;5016733;28;20049;-77
2022/04/30 10:08:28;;;;;;;6.43;3.80;;;14.20;99.90;;;;;;5016861;28;20037;-77
2022/04/30 10:11:21;;;;;;;4.75;3.35;;;14.30;99.90;;;;;;5016255;28;20116;-76
2022/04/30 10:13:57;;;;;;;9.65;3.88;;;14.10;99.90;;;;;;5016107;28;20616;-77
2022/04/30 10:16:25;;;;;;;11.32;4.22;;;13.80;99.90;;;;;;5029998;28;20038;-77
2022/04/30 10:18:59;;;;;;;6.55;3.90;;;13.60;99.90;;;;;;5030637;28;20049;-78
2022/04/30 10:21:24;;;;;;;9.15;3.70;;;13.50;99.90;;;;;;5004613;28;20045;-78
2022/04/30 10:24:03;;;;;;;6.60;3.60;;;13.50;99.90;;;;;;5015153;28;20385;-78
2022/04/30 10:26:29;;;;;;;7.38;3.13;;;13.50;99.90;;;;;;5016019;28;20077;-77
2022/04/30 10:29:10;;;;;;;6.25;3.67;;;13.40;99.90;;;;;;5017127;28;20075;-78
2022/04/30 10:31:44;;;;;;;5.40;3.20;;;13.40;99.90;;;;;;5000077;28;20041;-77
2022/04/30 10:34:10;;;;;;;7.13;3.63;;;13.20;99.90;;;;;;5016475;28;20057;-78
2022/04/30 10:36:37;;;;;;;7.22;3.65;;;13.10;99.90;;;;;;5015970;28;20041;-78
2022/04/30 10:39:06;;;;;;;4.15;3.17;;;13.10;99.90;;;;;;5015643;28;20041;-78
2022/04/30 10:42:06;;;;;;;5.03;2.97;;;13.00;99.90;;;;;;5015556;28;20049;-77
2022/04/30 10:44:32;;;;;;;8.65;3.92;;;12.90;99.90;;;;;;4965038;28;20053;-77
2022/04/30 10:47:09;;;;;;;8.07;4.25;;;12.80;99.90;;;;;;5007475;28;20032;-78
2022/04/30 10:49:35;;;;;;;5.57;4.10;;;12.70;99.90;;;;;;5012303;28;20505;-77
2022/04/30 10:52:01;;;;;;;7.93;3.55;;;12.60;99.90;;;;;;4998892;28;20049;-77
2022/04/30 10:54:30;;;;;;;10.98;4.07;;;12.50;99.90;;;;;;5001355;28;20141;-78
2022/04/30 10:57:04;;;;;;;7.05;3.88;;;12.50;99.90;;;;;;5001292;28;20401;-77
2022/04/30 10:59:29;;;;;;;8.07;3.20;;;12.40;99.90;;;;;;4998596;28;20417;-77
2022/04/30 11:01:55;;;;;;;10.35;4.53;;;12.30;99.90;;;;;;4999851;28;20095;-77
2022/04/30 11:04:22;;;;;;;8.98;3.95;;;12.20;99.90;;;;;;4984675;28;20069;-77
2022/04/30 11:06:53;;;;;;;10.10;3.75;;;12.20;99.90;;;;;;5000725;28;20053;-77
2022/04/30 11:09:20;;;;;;;8.43;5.82;;;12.10;99.90;;;;;;4999998;28;20571;-77
2022/04/30 11:11:47;;;;;;;7.88;3.85;;;12.10;99.90;;;;;;5000157;28;20046;-77
2022/04/30 11:14:14;;;;;;;4.45;3.45;;;12.10;99.90;;;;;;4983935;28;20046;-77
2022/04/30 11:16:45;;;;;;;8.90;3.42;;;12.10;99.90;;;;;;4999264;28;20842;-77
2022/04/30 11:19:13;;;;;;;8.13;3.47;;;12.20;99.90;;;;;;4983871;28;20041;-77
2022/04/30 11:21:46;;;;;;;5.97;3.55;;;12.20;99.90;;;;;;5000640;28;20050;-77
2022/04/30 11:24:25;;;;;;;10.38;4.05;;;12.30;99.90;;;;;;4999613;28;20057;-77
2022/04/30 11:26:58;;;;;;;9.52;5.97;;;12.40;99.90;;;;;;5014777;28;20052;-77
2022/04/30 11:29:24;;;;;;;11.65;4.18;;;12.40;99.90;;;;;;4996032;28;20050;-76
2022/04/30 11:31:52;;;;;;;5.50;3.88;;;12.40;99.90;;;;;;4995753;28;20137;-77
2022/04/30 11:34:18;;;;;;;6.20;3.20;;;12.50;99.90;;;;;;5011927;28;20052;-77
2022/04/30 11:36:49;;;;;;;8.27;3.35;;;12.60;99.90;;;;;;5017065;28;20034;-77
2022/04/30 11:39:16;;;;;;;9.98;3.85;;;12.60;99.90;;;;;;5015825;28;20052;-77
2022/04/30 11:41:48;;;;;;;7.85;3.17;;;12.60;99.90;;;;;;4986667;28;20073;-78
2022/04/30 11:44:15;;;;;;;9.43;3.20;;;12.60;99.90;;;;;;5002277;28;20539;-77
2022/04/30 11:46:41;;;;;;;6.25;3.50;;;12.70;99.90;;;;;;4996678;28;20050;-77
2022/04/30 11:49:09;;;;;;;11.70;3.65;;;12.80;99.90;;;;;;4996458;28;20125;-77
2022/04/30 11:51:35;;;;;;;4.78;3.38;;;12.80;99.90;;;;;;5002516;28;20756;-77
2022/04/30 11:54:08;;;;;;;9.25;3.20;;;12.90;99.90;;;;;;4999953;28;20042;-77
2022/04/30 11:56:34;;;;;;;4.45;3.42;;;12.90;99.90;;;;;;4999410;28;20045;-77
2022/04/30 11:59:00;;;;;;;6.30;3.13;;;12.90;99.90;;;;;;5014243;28;20128;-77
2022/04/30 12:01:29;;;;;;;6.45;2.80;;;12.90;99.90;;;;;;4993873;28;20121;-77
2022/04/30 12:03:57;;;;;;;3.83;2.75;;;12.80;99.90;;;;;;4994376;28;20081;-77
2022/04/30 12:06:25;;;;;;;7.13;3.50;;;12.80;99.90;;;;;;4994465;28;20094;-77
2022/04/30 12:08:50;;;;;;;7.47;3.47;;;12.80;99.90;;;;;;5011779;28;20038;-77
2022/04/30 12:11:16;;;;;;;7.97;3.50;;;12.80;99.90;;;;;;4993879;28;20037;-77
2022/04/30 12:13:42;;;;;;;9.07;4.07;;;12.70;99.90;;;;;;5011696;28;20402;-77
2022/04/30 12:16:08;;;;;;;6.72;4.22;;;12.60;99.90;;;;;;4994163;28;20077;-77
2022/04/30 12:27:03;;;;;;;9.63;4.30;;;12.30;99.90;;;;;;4994273;28;20088;-77
2022/04/30 12:29:30;;;;;;;7.53;4.10;;;12.20;99.90;;;;;;4993873;28;20041;-76
2022/04/30 12:31:57;;;;;;;8.80;5.10;;;12.00;99.90;;;;;;4994045;28;20141;-77
2022/04/30 12:34:34;;;;;;;7.05;4.28;;;12.00;99.90;;;;;;4993802;28;20073;-77
2022/04/30 12:37:00;;;;;;;9.10;4.95;;;12.00;99.90;;;;;;4993901;28;20050;-77
2022/04/30 12:39:27;;;;;;;9.32;4.72;;;12.00;99.90;;;;;;4993651;28;20042;-77
2022/04/30 12:41:54;;;;;;;10.52;5.13;;;11.90;99.90;;;;;;5010278;28;20049;-77
2022/04/30 12:44:20;;;;;;;10.93;4.45;;;11.90;99.90;;;;;;4977678;28;20057;-77
2022/04/30 12:46:47;;;;;;;7.28;4.03;;;11.90;99.90;;;;;;4994073;28;20636;-77
2022/04/30 12:49:14;;;;;;;8.73;4.95;;;11.90;99.90;;;;;;4998109;28;20500;-77
2022/04/30 12:51:41;;;;;;;10.02;4.55;;;11.90;99.90;;;;;;4997994;28;20326;-77
2022/04/30 12:54:09;;;;;;;9.02;4.05;;;11.80;99.90;;;;;;4997644;28;20639;-76
2022/04/30 12:56:34;;;;;;;9.25;4.50;;;11.80;99.90;;;;;;4998214;28;20052;-76
2022/04/30 12:59:00;;;;;;;9.23;4.07;;;11.80;99.90;;;;;;5014409;28;20034;-77
2022/04/30 13:01:26;;;;;;;8.65;4.15;;;11.70;99.90;;;;;;4997774;28;20034;-76
2022/04/30 13:03:51;;;;;;;6.70;4.20;;;11.70;99.90;;;;;;5014872;28;20429;-76
2022/04/30 13:06:17;;;;;;;10.50;4.00;;;11.60;99.90;;;;;;5015684;28;20042;-76
2022/04/30 13:14:11;;;;;;;10.18;3.50;;;11.60;99.90;;;;;;4998223;28;20108;-77
2022/04/30 13:16:37;;;;;;;7.00;3.90;;;11.60;99.90;;;;;;5014986;28;20053;-76
2022/04/30 13:19:04;;;;;;;8.45;3.83;;;11.60;99.90;;;;;;5013735;28;20077;-77
2022/04/30 13:21:30;;;;;;;8.25;4.03;;;11.60;99.90;;;;;;5013987;28;20129;-77
2022/04/30 13:23:55;;;;;;;10.35;4.50;;;11.60;99.90;;;;;;4998418;28;20121;-77
2022/04/30 13:26:21;;;;;;;4.30;3.05;;;11.60;99.90;;;;;;5014542;28;20049;-77
2022/04/30 13:28:47;;;;;;;9.23;4.28;;;11.60;99.90;;;;;;5015128;28;20404;-77
2022/04/30 13:31:13;;;;;;;7.47;4.30;;;11.60;99.90;;;;;;4998209;28;20042;-77
2022/04/30 13:33:41;;;;;;;6.82;3.85;;;11.70;99.90;;;;;;4997506;28;20038;-77
2022/04/30 13:36:09;;;;;;;8.52;3.90;;;11.70;99.90;;;;;;4997962;28;20041;-77